Data for 08/02/2009

Time Sea-Level Adjusted Pressure Absolute Pressure Temperature Relative Humidity Dew Point   
(mb) (inHg) (mb) (inHg) (C) (F) (%) (C) (F)
00:05 1019 30.09 848 25.04 18.6 65.5 47 7.3 45.1
00:10 1019 30.09 848 25.04 18.3 64.9 49 7.5 45.5
00:15 1019 30.09 848 25.04 18 64.5 49 7.3 45.2
00:20 1019 30.09 848 25.04 17.9 64.2 50 7.5 45.5
00:25 1019 30.09 848 25.04 17.7 63.8 50 7.4 45.3
00:30 1019 30.09 848 25.04 17.7 63.8 50 7.3 45.1
00:35 1019 30.09 848 25.04 17.7 63.9 50 7.2 45
00:40 1019 30.09 848 25.04 17.8 64.1 49 7 44.6
00:45 1019 30.09 848 25.04 18 64.5 48 6.9 44.4
00:50 1019 30.09 848 25.04 18.2 64.7 47 6.8 44.2
00:55 1019 30.09 848 25.04 18.3 64.9 46 6.7 44
01:00 1019 30.09 848 25.04 18.4 65.1 47 6.9 44.3
01:05 1019 30.09 848 25.04 18.2 64.7 48 7.1 44.8
01:10 1019 30.09 848 25.04 18 64.3 48 7 44.6
01:15 1019 30.09 848 25.04 18 64.3 48 7 44.6
01:20 1019 30.09 848 25.04 17.8 64 49 7.1 44.8
01:25 1019 30.09 848 25.04 17.7 63.8 49 7 44.6
01:30 1019 30.09 848 25.04 17.6 63.8 49 7 44.6
01:35 1019 30.09 848 25.04 17.8 64.1 48 6.7 44.1
01:40 1019 30.09 848 25.04 17.9 64.2 47 6.6 43.9
01:45 1019 30.09 848 25.04 17.8 64.1 48 6.9 44.4
01:50 1019 30.09 848 25.04 17.8 64 49 7.1 44.7
01:55 1019 30.09 848 25.04 17.8 64 49 7 44.5
02:00 1019 30.09 848 25.04 17.5 63.5 52 7.5 45.6
02:05 1019 30.09 848 25.04 17.5 63.5 50 7 44.6
02:10 1019 30.09 848 25.04 17.6 63.7 51 7.4 45.3
02:15 1019 30.09 848 25.04 17.6 63.7 49 7 44.6
02:20 1019 30.09 848 25.04 17.2 63 50 6.8 44.3
02:25 1019 30.09 848 25.04 16.9 62.3 52 7 44.5
02:30 1019 30.09 848 25.04 16.8 62.2 50 6.4 43.4
02:35 1019 30.09 848 25.04 16.8 62.2 51 6.8 44.3
02:40 1019 30.09 848 25.04 16.1 61 56 7.5 45.4
02:45 1019 30.09 848 25.04 15.7 60.3 53 6.3 43.4
02:50 1019 30.09 848 25.04 15.9 60.7 52 6.1 43
02:55 1019 30.09 848 25.04 16.1 61 55 7.1 44.7
03:00 1019 30.09 848 25.04 16 60.7 57 7.4 45.4
03:05 1019 30.09 848 25.04 15.6 60.1 57 7.1 44.8
03:10 1019 30.09 848 25.04 15.3 59.5 59 7.3 45.2
03:15 1019 30.09 848 25.04 15 59.1 56 6.4 43.6
03:20 1019 30.09 848 25.04 15.1 59.1 55 6.1 42.9
03:25 1019 30.09 848 25.04 14.9 58.8 58 6.8 44.2
03:30 1019 30.09 848 25.04 14.6 58.3 58 6.4 43.5
03:35 1019 30.09 848 25.04 14.5 58.1 59 6.6 44
03:40 1019 30.09 848 25.04 14.1 57.4 59 6.4 43.5
03:45 1019 30.09 848 25.04 14.1 57.3 58 6 42.9
03:50 1019 30.09 848 25.04 14 57.3 58 5.9 42.6
03:55 1019 30.09 848 25.04 13.9 57 60 6.3 43.4
04:00 1019 30.09 848 25.04 13.8 56.8 55 5.1 41.1
04:05 1019 30.09 848 25.04 14.6 58.2 50 4.4 39.9
04:10 1019 30.09 848 25.04 15.3 59.6 50 5 41
04:15 1019 30.09 848 25.04 15.3 59.5 51 5.2 41.4
04:20 1019 30.09 848 25.04 15 59.1 51 5.2 41.3
04:25 1019 30.09 848 25.04 14.7 58.4 54 5.4 41.8
04:30 1019 30.09 848 25.04 14.4 58 52 4.9 40.8
04:35 1019 30.09 848 25.04 14.5 58.1 54 5.4 41.7
04:40 1019 30.09 848 25.04 14.4 57.9 52 4.7 40.5
04:45 1019 30.09 848 25.04 14.6 58.3 50 4.4 39.9
04:50 1019 30.09 848 25.04 15.4 59.7 48 4.5 40
04:55 1019 30.09 848 25.04 15.3 59.6 49 4.9 40.8
05:00 1019 30.09 848 25.04 15.2 59.4 48 4.3 39.8
05:05 1019 30.09 848 25.04 15.4 59.7 50 5.1 41.2
05:10 1019 30.09 848 25.04 14.7 58.4 53 5.4 41.7
05:15 1019 30.09 848 25.04 14.3 57.7 51 4.5 40
05:20 1019 30.09 848 25.04 14.6 58.3 49 4.2 39.6
05:25 1019 30.09 848 25.04 14.8 58.7 50 4.5 40.2
05:30 1019 30.09 848 25.04 14.9 58.8 49 4.5 40.1
05:35 1019 30.09 848 25.04 14.9 58.8 49 4.4 40
05:40 1019 30.09 848 25.04 14.9 58.9 49 4.3 39.7
05:45 1019 30.09 848 25.04 14.8 58.7 50 4.5 40.1
05:50 1019 30.09 848 25.04 14.7 58.4 50 4.4 39.9
05:55 1019 30.09 848 25.04 14.5 58.1 50 4.3 39.8
06:00 1019 30.09 848 25.04 14.8 58.7 47 3.8 38.8
06:05 1019 30.09 848 25.04 15.3 59.5 46 3.7 38.7
06:10 1019 30.09 848 25.04 15.3 59.6 45 3.4 38.2
06:15 1019 30.09 848 25.04 15.2 59.3 45 3.5 38.2
06:20 1019 30.09 848 25.04 14.9 58.8 45 3.1 37.5
06:25 1019 30.09 848 25.04 14.8 58.7 45 3 37.3
06:30 1019 30.09 848 25.04 15 58.9 43 2.7 36.8
06:35 1019 30.09 848 25.04 15.4 59.6 41 2.2 35.9
06:40 1019 30.09 848 25.04 15.4 59.7 44 3.3 37.9
06:45 1019 30.09 848 25.04 15.3 59.5 44 3.2 37.7
06:50 1019 30.09 848 25.04 14.5 58.1 46 3.1 37.6
06:55 1019 30.09 848 25.04 14.3 57.7 46 3 37.5
07:00 1019 30.09 848 25.04 14.1 57.3 46 2.7 36.9
07:05 1019 30.09 848 25.04 14.1 57.3 48 3.4 38
07:10 1019 30.09 848 25.04 14.2 57.6 44 2.2 35.9
07:15 1019 30.09 848 25.04 14.9 58.7 41 1.8 35.2
07:20 1019 30.09 848 25.04 15.3 59.5 41 2.3 36.1
07:25 1019 30.09 848 25.04 15.2 59.4 41 2.3 36.1
07:30 1019 30.09 848 25.04 15.5 59.8 42 2.6 36.7
07:35 1019 30.09 848 25.04 15.6 60.1 42 2.9 37.2
07:40 1019 30.09 848 25.04 15.6 60.1 42 2.8 37
07:45 1019 30.09 848 25.04 16 60.9 44 3.8 38.8
07:50 1019 30.09 848 25.04 16.3 61.3 39 2.5 36.6
07:55 1019 30.09 848 25.04 16.6 61.9 40 3.2 37.8
08:00 1019 30.09 848 25.04 16.8 62.2 39 2.7 36.9
08:05 1019 30.09 848 25.04 16.8 62.2 43 4.2 39.5
08:10 1019 30.09 848 25.04 16.7 62 44 4.6 40.4
08:15 1019 30.09 848 25.04 16.7 62 43 4.2 39.6
08:20 1019 30.09 848 25.04 16.8 62.2 46 5.1 41.3
08:25 1019 30.09 848 25.04 17 62.6 44 4.9 40.8
08:30 1019 30.09 848 25.04 17 62.6 44 4.9 40.8
08:35 1019 30.09 848 25.04 17.5 63.4 43 4.8 40.6
08:40 1019 30.09 848 25.04 17.9 64.2 40 4.4 40
08:45 1019 30.09 848 25.04 18.6 65.5 41 5.2 41.4
08:50 1019 30.09 848 25.04 19.4 66.9 45 7.2 45
08:55 1019 30.09 848 25.04 19.8 67.7 39 5.7 42.2
09:00 1019 30.09 848 25.04 20.3 68.5 39 6.1 42.9
09:05 1019 30.09 848 25.04 20.3 68.5 40 6.4 43.5
09:10 1019 30.09 848 25.04 20.5 69 39 6.3 43.4
09:15 1019 30.09 848 25.04 21 69.7 37 6 42.8
09:20 1019 30.09 848 25.04 21.4 70.5 35 5.6 42.1
09:25 1019 30.09 848 25.04 22 71.6 34 5.6 42.1
09:30 1019 30.09 848 25.04 22.6 72.6 33 5.7 42.3
09:35 1019 30.09 848 25.04 23.2 73.7 31 5.1 41.2
09:40 1019 30.09 848 25.04 23.5 74.2 30 5.3 41.5
09:45 1019 30.09 848 25.04 23.7 74.7 32 6.3 43.3
09:50 1019 30.09 848 25.04 23.8 74.9 32 6.5 43.8
09:55 1019 30.09 848 25.04 23.4 74.1 30 5.2 41.4
10:00 1019 30.09 848 25.04 23.5 74.3 31 5.5 41.8
10:05 1019 30.09 848 25.04 23.9 75.1 32 6.5 43.7
10:10 1019 30.09 848 25.04 24 75.1 31 6 42.9
10:15 1019 30.09 848 25.04 23.7 74.6 32 6.3 43.4
10:20 1019 30.09 848 25.04 23.2 73.8 29 4.3 39.8
10:25 1019 30.09 848 25.04 23.3 73.9 29 4.3 39.7
10:30 1019 30.09 848 25.04 23.8 74.8 30 5.1 41.3
10:35 1019 30.09 848 25.04 24.1 75.3 29 5.2 41.3
10:40 1019 30.09 848 25.04 24 75.1 29 5 41
10:45 1019 30.09 848 25.04 23.9 75.1 30 5.4 41.7
10:50 1019 30.09 848 25.04 24.2 75.6 30 5.8 42.5
10:55 1019 30.09 848 25.04 24.8 76.7 27 4.8 40.7
11:00 1019 30.09 848 25.04 25 76.9 25 3.6 38.5
11:05 1019 30.09 848 25.04 24.6 76.3 27 4.8 40.6
11:10 1019 30.09 848 25.04 24.9 76.8 32 7.2 45
11:15 1019 30.09 848 25.04 24.9 76.7 34 8.1 46.5
11:20 1019 30.09 848 25.04 24 75.3 33 6.9 44.5
11:25 1019 30.09 848 25.04 24.5 76.2 30 6 42.9
11:30 1019 30.09 848 25.04 25.6 78 29 6.6 43.9
11:35 1019 30.09 848 25.04 26.1 79 27 5.7 42.3
11:40 1019 30.09 848 25.04 26.3 79.4 27 6.3 43.3
11:45 1019 30.09 848 25.04 26.7 80.1 26 6.1 43
11:50 1019 30.09 848 25.04 27.4 81.3 26 6.6 43.9
11:55 1019 30.09 848 25.04 27.5 81.5 26 6.8 44.3
12:00 1019 30.09 848 25.04 27.8 82 26 7 44.6
12:05 1019 30.09 848 25.04 28.5 83.4 24 6.3 43.3
12:10 1019 30.09 848 25.04 28.7 83.7 24 6.7 44.1
12:15 1019 30.09 848 25.04 28.2 82.8 26 7.1 44.7
12:20 1019 30.09 848 25.04 28.2 82.8 25 6.5 43.7
12:25 1018 30.06 848 25.04 27.8 82 26 7 44.5
12:30 1018 30.06 848 25.04 27.2 81 26 6.2 43.2
12:35 1018 30.06 848 25.04 28.3 82.9 25 6.7 44.1
12:40 1018 30.06 848 25.04 27.9 82.2 27 7.5 45.5
12:45 1018 30.06 847 25.01 27.1 80.7 28 7.3 45.1
12:50 1018 30.06 847 25.01 26.9 80.3 25 5.7 42.3
12:55 1018 30.06 847 25.01 26.6 80 23 4.3 39.7
13:00 1018 30.06 847 25.01 26.9 80.5 24 5.2 41.4
13:05 1018 30.06 847 25.01 27.7 81.8 23 5.2 41.4
13:10 1018 30.06 847 25.01 27.4 81.4 22 4.2 39.5
13:15 1018 30.06 847 25.01 27.4 81.3 23 4.9 40.8
13:20 1018 30.06 847 25.01 27.8 82 23 5.1 41.2
13:25 1018 30.06 847 25.01 27.8 82 23 4.8 40.7
13:30 1018 30.06 847 25.01 28 82.5 23 5.4 41.7
13:35 1018 30.06 847 25.01 28.3 83 24 6.2 43.1
13:40 1018 30.06 847 25.01 28.6 83.4 23 5.9 42.6
13:45 1018 30.06 847 25.01 28.5 83.3 23 5.8 42.4
13:50 1018 30.06 847 25.01 28.4 83.2 20 3.9 39
13:55 1018 30.06 847 25.01 28.2 82.8 23 5.3 41.5
14:00 1018 30.06 847 25.01 28.7 83.7 22 5 40.9
14:05 1017 30.03 847 25.01 28.7 83.7 21 4.3 39.8
14:10 1017 30.03 847 25.01 29.2 84.6 20 4.5 40
14:15 1017 30.03 846 24.98 30 86 19 4.1 39.3
14:20 1017 30.03 846 24.98 30.3 86.5 18 4 39.1
14:25 1017 30.03 846 24.98 30.4 86.6 18 4.1 39.3
14:30 1017 30.03 846 24.98 30.7 87.2 18 4.3 39.8
14:35 1017 30.03 846 24.98 30 85.9 20 4.6 40.3
14:40 1017 30.03 846 24.98 29.4 84.8 22 5.5 42
14:45 1017 30.03 846 24.98 29 84.2 21 4.6 40.3
14:50 1017 30.03 846 24.98 29.5 85.1 21 5.1 41.2
14:55 1017 30.03 846 24.98 30.1 86.1 22 6.3 43.3
15:00 1017 30.03 846 24.98 29.8 85.6 21 5.7 42.3
15:05 1017 30.03 846 24.98 29.3 84.8 22 5.9 42.6
15:10 1017 30.03 846 24.98 29 84.2 22 5.3 41.5
15:15 1017 30.03 846 24.98 29.7 85.5 19 4.3 39.8
15:20 1017 30.03 846 24.98 30.1 86.2 25 8.1 46.6
15:25 1017 30.03 846 24.98 28 82.5 24 6 42.7
15:30 1017 30.03 846 24.98 28.2 82.7 24 5.9 42.6
15:35 1017 30.03 846 24.98 28.5 83.3 24 6.3 43.3
15:40 1017 30.03 846 24.98 28.3 82.9 27 7.7 45.8
15:45 1017 30.03 847 25.01 27.4 81.4 28 7.4 45.3
15:50 1017 30.03 847 25.01 26.7 80.1 28 7 44.6
15:55 1018 30.06 847 25.01 25.9 78.6 39 11 51.8
16:00 1018 30.06 847 25.01 23.7 74.7 51 13.2 55.7
16:05 1018 30.06 847 25.01 22.3 72.1 45 10.1 50.1
16:10 1018 30.06 847 25.01 22.7 72.8 44 9.9 49.7
16:15 1018 30.06 847 25.01 22.3 72.1 44 9.7 49.5
16:20 1018 30.06 847 25.01 22.2 72 42 8.8 47.9
16:25 1018 30.06 847 25.01 22.8 73 47 11.2 52.1
16:30 1018 30.06 847 25.01 22.1 71.9 57 13.3 55.9
16:35 1018 30.06 847 25.01 21.8 71.3 52 11.6 52.9
16:40 1017 30.03 847 25.01 22.3 72.2 52 12.1 53.8
16:45 1017 30.03 847 25.01 22.6 72.7 48 11.4 52.4
16:50 1017 30.03 846 24.98 22.6 72.7 52 12.5 54.4
16:55 1017 30.03 846 24.98 22.6 72.7 49 11.5 52.8
17:00 1017 30.03 846 24.98 22.5 72.5 51 11.9 53.4
17:05 1017 30.03 846 24.98 22.7 72.8 50 11.9 53.5
17:10 1017 30.03 846 24.98 22.7 72.9 51 12.3 54.2
17:15 1017 30.03 846 24.98 23.3 73.9 50 12.3 54.1
17:20 1017 30.03 846 24.98 23.4 74.1 46 11.3 52.4
17:25 1017 30.03 846 24.98 23.6 74.4 43 10.6 51
17:30 1017 30.03 846 24.98 23.8 74.9 45 11.3 52.4
17:35 1017 30.03 846 24.98 24.4 75.8 36 8.7 47.6
17:40 1017 30.03 846 24.98 25.3 77.5 32 7.7 45.8
17:45 1017 30.03 846 24.98 25.7 78.3 31 7.5 45.5
17:50 1017 30.03 846 24.98 25.9 78.6 30 7.1 44.8
17:55 1017 30.03 846 24.98 25.8 78.4 30 6.9 44.4
18:00 1017 30.03 846 24.98 25.7 78.3 29 6.4 43.6
18:05 1017 30.03 846 24.98 25.7 78.2 30 7 44.6
18:10 1017 30.03 846 24.98 25.5 77.9 30 7.1 44.8
18:15 1017 30.03 846 24.98 25.3 77.6 33 8.2 46.8
18:20 1017 30.03 846 24.98 25.2 77.3 33 8.1 46.6
18:25 1017 30.03 846 24.98 25.1 77.2 33 8.1 46.6
18:30 1017 30.03 846 24.98 25.1 77.1 34 8.3 47
18:35 1017 30.03 846 24.98 25 76.9 35 8.5 47.3
18:40 1017 30.03 846 24.98 25 76.9 37 9.5 49.2
18:45 1017 30.03 846 24.98 24.7 76.5 38 9.8 49.7
18:50 1017 30.03 846 24.98 24.7 76.4 39 9.9 49.7
18:55 1017 30.03 846 24.98 24.7 76.4 37 9.4 48.9
19:00 1017 30.03 846 24.98 24.5 76.2 40 10.4 50.7
19:05 1017 30.03 846 24.98 24.3 75.7 41 10.2 50.4
19:10 1016 30 846 24.98 24.1 75.5 38 9.1 48.3
19:15 1016 30 846 24.98 24.4 76 36 8.7 47.6
19:20 1016 30 846 24.98 24.5 76.1 35 8.4 47.1
19:25 1016 30 846 24.98 24.5 76.1 35 8.1 46.5
19:30 1016 30 845 24.95 24.5 76 36 8.5 47.2
19:35 1016 30 846 24.98 24.4 76 34 7.8 46
19:40 1016 30 846 24.98 24.4 75.9 38 9.2 48.6
19:45 1016 30 846 24.98 24.1 75.4 39 9.4 49
19:50 1016 30 846 24.98 23.8 74.8 38 9 48.2
19:55 1016 30 846 24.98 23.8 74.8 39 9.2 48.5
20:00 1016 30 846 24.98 23.7 74.7 39 9.3 48.7
20:05 1016 30 846 24.98 23.6 74.4 41 9.6 49.3
20:10 1016 30 846 24.98 23.4 74.2 44 10.5 51
20:15 1016 30 846 24.98 23.1 73.5 45 10.5 51
20:20 1016 30 846 24.98 22.8 73.1 45 10.4 50.7
20:25 1016 30 846 24.98 22.6 72.7 45 10.1 50.2
20:30 1016 30 846 24.98 22.4 72.3 46 10.4 50.7
20:35 1016 30 846 24.98 22.2 72 46 10.2 50.4
20:40 1016 30 846 24.98 22.1 71.9 47 10.3 50.6
20:45 1016 30 846 24.98 21.9 71.4 48 10.7 51.2
20:50 1017 30.03 846 24.98 21.7 71.1 49 10.6 51.1
20:55 1017 30.03 846 24.98 21.4 70.6 49 10.5 50.9
21:00 1017 30.03 846 24.98 21.3 70.3 49 10.4 50.7
21:05 1017 30.03 846 24.98 21 69.8 49 10 50
21:10 1017 30.03 846 24.98 20.8 69.5 52 10.7 51.2
21:15 1017 30.03 846 24.98 20.8 69.4 49 9.9 49.8
21:20 1017 30.03 846 24.98 20.7 69.3 49 9.8 49.6
21:25 1017 30.03 846 24.98 20.1 68.1 56 11.2 52.1
21:30 1017 30.03 846 24.98 19.4 67 54 10.1 50.2
21:35 1017 30.03 846 24.98 19.7 67.4 51 9.5 49.1
21:40 1017 30.03 846 24.98 20.2 68.4 48 9 48.2
21:45 1017 30.03 846 24.98 20.4 68.7 46 8.6 47.5
21:50 1017 30.03 846 24.98 20.7 69.3 46 9 48.2
21:55 1017 30.03 846 24.98 20.5 68.9 47 9.1 48.4
22:00 1017 30.03 846 24.98 20.2 68.4 49 9.2 48.6
22:05 1017 30.03 846 24.98 19.9 67.9 50 9.4 49
22:10 1017 30.03 846 24.98 19.8 67.6 51 9.5 49
22:15 1017 30.03 846 24.98 19.6 67.2 50 8.9 48.1
22:20 1017 30.03 846 24.98 19.7 67.5 50 9.1 48.3
22:25 1017 30.03 846 24.98 19.7 67.4 50 9 48.2
22:30 1017 30.03 846 24.98 19.9 67.8 46 7.9 46.3
22:35 1017 30.03 846 24.98 20.3 68.6 44 7.7 45.9
22:40 1017 30.03 846 24.98 20.6 69 44 8 46.3
22:45 1017 30.03 846 24.98 20.2 68.4 45 8.2 46.7
22:50 1017 30.03 846 24.98 20.1 68.2 43 7.4 45.4
22:55 1017 30.03 847 25.01 20.1 68.3 44 7.5 45.5
23:00 1017 30.03 847 25.01 20.2 68.4 44 7.8 46.1
23:05 1017 30.03 847 25.01 20 68.1 45 8 46.3
23:10 1017 30.03 847 25.01 19.7 67.5 49 8.8 47.9
23:15 1017 30.03 847 25.01 19.3 66.7 50 8.6 47.5
23:20 1017 30.03 846 24.98 18.8 65.9 51 8.6 47.4
23:25 1017 30.03 846 24.98 18.6 65.4 51 8.5 47.3
23:30 1017 30.03 847 25.01 18.9 66 54 9.6 49.2
23:35 1017 30.03 846 24.98 18.9 66 48 7.9 46.2
23:40 1017 30.03 846 24.98 19.2 66.5 48 8 46.4
23:45 1017 30.03 846 24.98 19.1 66.4 48 8 46.4
23:50 1017 30.03 846 24.98 18.9 66.1 48 7.9 46.2
23:55 1017 30.03 846 24.98 18.8 65.8 49 8 46.4
24:00 1017 30.03 846 24.98 18.8 65.8 51 8.4 47.2